Time;durP1;ratioP1;P1;durP2;ratioP2;P2;SDS_P1;SDS_P2;PMS_P1;PMS_P2;Temp;Humidity;BMP_temperature;BMP_pressure;BME280_temperature;BME280_humidity;BME280_pressure;Samples;Min_cycle;Max_cycle;Signal;HPM_P1;HPM_P2
2020/12/03 12:14:02;;;;;;;10.77;5.85;;;;;;;;;;3299908;26;20258;-90
2020/12/03 12:19:16;;;;;;;14.05;6.70;;;;;;;;;;3913623;30;21009;31
2020/12/03 17:02:14;;;;;;;11.65;6.97;;;;;;;;;;3588341;39;20083;-91
2020/12/03 17:04:40;;;;;;;13.67;7.00;;;;;;;;;;3592909;32;20072;-90
2020/12/03 17:07:06;;;;;;;13.73;7.63;;;;;;;;;;3567760;40;20125;-90
2020/12/03 17:09:32;;;;;;;12.97;7.77;;;;;;;;;;3567263;40;20072;-91
2020/12/03 18:22:09;;;;;;;17.93;10.23;;;;;;;;;;3141972;34;20084;-89
2020/12/03 18:24:35;;;;;;;19.57;10.90;;;;;;;;;;3576182;32;20100;-90
2020/12/03 18:27:01;;;;;;;20.80;11.60;;;;;;;;;;3719977;32;20117;-91
2020/12/03 18:29:27;;;;;;;20.70;11.93;;;;;;;;;;3603932;39;20142;-89
2020/12/03 18:37:03;;;;;;;27.63;12.87;;;;;;;;;;3582433;39;20119;-90
2020/12/03 18:44:41;;;;;;;19.37;10.93;;;;;;;;;;2533796;34;20108;-90
2020/12/03 18:47:07;;;;;;;16.07;9.53;;;;;;;;;;3565253;40;20114;-90
2020/12/03 18:49:33;;;;;;;17.27;9.73;;;;;;;;;;3573915;32;20064;-91
2020/12/03 18:51:59;;;;;;;18.43;9.97;;;;;;;;;;3571364;32;20069;-90
2020/12/03 18:54:40;;;;;;;18.70;10.17;;;;;;;;;;3568086;32;20071;-91
2020/12/03 18:57:06;;;;;;;16.40;9.83;;;;;;;;;;3688890;32;20092;-92
2020/12/03 18:59:40;;;;;;;17.57;9.67;;;;;;;;;;3573831;40;20128;-89
2020/12/03 19:02:07;;;;;;;16.63;10.27;;;;;;;;;;3571784;40;20116;-90
2020/12/03 19:04:33;;;;;;;16.93;10.20;;;;;;;;;;3659484;32;20098;-91
2020/12/03 19:07:00;;;;;;;18.00;10.53;;;;;;;;;;3569783;40;20172;-91
2020/12/03 19:09:26;;;;;;;14.87;9.20;;;;;;;;;;3576896;32;20076;-89
2020/12/03 19:11:59;;;;;;;19.17;10.77;;;;;;;;;;3574244;32;20194;-90
2020/12/03 19:14:25;;;;;;;;;;;;;;;;;;3573254;32;20106;-88
2020/12/03 19:16:54;;;;;;;16.87;9.13;;;;;;;;;;3587980;32;20008;-90
2020/12/03 20:32:01;;;;;;;16.23;9.27;;;;;;;;;;3584396;32;20112;-90
2020/12/03 20:34:27;;;;;;;15.77;8.63;;;;;;;;;;3579724;32;20925;-89
2020/12/03 20:36:53;;;;;;;14.97;8.50;;;;;;;;;;3582186;32;20089;-89
2020/12/03 20:39:30;;;;;;;16.60;9.10;;;;;;;;;;3582711;32;20145;-90
2020/12/03 20:41:56;;;;;;;17.40;9.47;;;;;;;;;;3587308;39;20083;-90
2020/12/03 20:44:22;;;;;;;18.93;9.13;;;;;;;;;;3587078;39;20121;-87
2020/12/03 20:46:54;;;;;;;15.60;8.83;;;;;;;;;;3613928;34;20147;-90
2020/12/03 20:49:48;;;;;;;16.87;8.67;;;;;;;;;;3574156;40;20148;-90
2020/12/03 21:18:12;;;;;;;15.47;8.57;;;;;;;;;;3392328;38;20116;-89
2020/12/03 21:20:38;;;;;;;16.93;8.53;;;;;;;;;;3581962;39;20095;-89
2020/12/03 21:23:04;;;;;;;15.23;8.63;;;;;;;;;;3579899;32;20080;-86
2020/12/03 21:25:31;;;;;;;15.97;8.70;;;;;;;;;;3569878;40;20098;-91
2020/12/03 21:27:59;;;;;;;15.23;8.17;;;;;;;;;;3568166;32;20114;-88
2020/12/03 21:30:25;;;;;;;17.80;8.80;;;;;;;;;;3567041;40;20081;-88
2020/12/03 21:32:51;;;;;;;15.77;8.97;;;;;;;;;;3567596;40;20076;-90
2020/12/03 21:35:21;;;;;;;16.63;9.50;;;;;;;;;;3559301;40;20111;-87
2020/12/03 21:37:49;;;;;;;16.23;9.00;;;;;;;;;;3564999;32;20155;-87
2020/12/03 21:40:20;;;;;;;15.77;9.20;;;;;;;;;;3569533;40;20077;-88
2020/12/03 21:42:46;;;;;;;16.87;9.90;;;;;;;;;;3590726;32;20099;-87
2020/12/03 21:45:12;;;;;;;15.90;8.93;;;;;;;;;;3583355;40;20119;-87
2020/12/03 21:47:38;;;;;;;17.57;9.07;;;;;;;;;;3577547;32;20123;-87
2020/12/03 21:50:04;;;;;;;15.20;8.77;;;;;;;;;;3558625;40;20134;-87
2020/12/03 21:52:30;;;;;;;14.97;8.77;;;;;;;;;;3575011;40;20802;-87
2020/12/03 21:54:56;;;;;;;18.40;9.10;;;;;;;;;;3572213;32;20786;-89
2020/12/03 21:57:22;;;;;;;15.67;9.03;;;;;;;;;;3568917;32;20094;-87
2020/12/03 21:59:48;;;;;;;14.80;9.13;;;;;;;;;;3568132;40;20093;-88
2020/12/03 22:02:15;;;;;;;17.87;9.30;;;;;;;;;;3558135;40;20115;-88
2020/12/03 22:04:41;;;;;;;17.87;10.60;;;;;;;;;;3562197;32;20085;-89
2020/12/03 22:07:07;;;;;;;16.87;9.23;;;;;;;;;;3573134;32;20099;-87
2020/12/03 22:09:36;;;;;;;16.70;9.43;;;;;;;;;;3568154;32;20115;-89
2020/12/03 22:12:02;;;;;;;18.43;9.93;;;;;;;;;;3562317;40;20103;-88
2020/12/03 22:14:31;;;;;;;19.20;10.30;;;;;;;;;;3567222;32;20162;-88
2020/12/03 22:16:57;;;;;;;17.43;10.50;;;;;;;;;;3567262;40;20100;-88
2020/12/03 22:46:20;;;;;;;18.87;9.93;;;;;;;;;;3102289;34;20151;-89
2020/12/03 22:48:46;;;;;;;19.17;10.53;;;;;;;;;;3592697;32;20143;-90
2020/12/03 22:51:12;;;;;;;18.40;9.97;;;;;;;;;;3583705;39;20103;-87
2020/12/03 22:53:38;;;;;;;18.30;10.27;;;;;;;;;;3574976;32;20662;-87
2020/12/03 22:56:04;;;;;;;18.07;10.10;;;;;;;;;;3568375;40;20084;-88
2020/12/03 22:58:30;;;;;;;19.70;10.17;;;;;;;;;;3573107;39;20100;-88
2020/12/03 23:00:57;;;;;;;21.03;10.67;;;;;;;;;;3576990;40;20100;-89
2020/12/03 23:03:23;;;;;;;23.00;11.77;;;;;;;;;;3576709;40;20080;-90
2020/12/03 23:05:49;;;;;;;20.20;10.80;;;;;;;;;;3579551;32;20103;-88
2020/12/03 23:08:15;;;;;;;18.90;11.17;;;;;;;;;;3575748;32;20168;-91
2020/12/03 23:10:41;;;;;;;23.77;11.43;;;;;;;;;;3569897;32;20084;-90
2020/12/03 23:13:07;;;;;;;19.10;10.13;;;;;;;;;;3570005;32;20088;-90
2020/12/03 23:15:34;;;;;;;19.70;11.13;;;;;;;;;;3570097;32;20080;-89
2020/12/03 23:18:00;;;;;;;19.87;10.67;;;;;;;;;;3568888;40;20080;-89
2020/12/03 23:20:26;;;;;;;21.67;11.23;;;;;;;;;;3568518;40;20087;-88
2020/12/03 23:22:52;;;;;;;20.13;11.03;;;;;;;;;;3568870;40;20075;-90
2020/12/03 23:25:18;;;;;;;22.67;11.60;;;;;;;;;;3568835;40;20084;-91
2020/12/03 23:27:44;;;;;;;18.67;10.63;;;;;;;;;;3582055;32;20084;-90
2020/12/03 23:30:11;;;;;;;20.87;10.97;;;;;;;;;;3577049;40;20123;-90
2020/12/03 23:32:37;;;;;;;19.97;10.67;;;;;;;;;;3568664;40;20088;-90
2020/12/03 23:58:25;;;;;;;22.33;11.37;;;;;;;;;;839701;34;20589;-90
